sensor_id;sensor_type;location;lat;lon;timestamp;pressure;altitude;pressure_sealevel;temperature;humidity
26192;BME280;13935;55.672;37.764;2023-04-02T04:50:28;99574.84;;;8.42;100.00
26192;BME280;13935;55.672;37.764;2023-04-02T04:51:43;99574.19;;;8.52;100.00
26192;BME280;13935;55.672;37.764;2023-04-02T06:38:23;99613.31;;;9.14;100.00
26192;BME280;13935;55.672;37.764;2023-04-02T06:39:34;99614.91;;;9.22;100.00
26192;BME280;13935;55.672;37.764;2023-04-02T06:40:51;99606.94;;;9.10;100.00
26192;BME280;13935;55.672;37.764;2023-04-02T06:42:16;99606.03;;;8.92;100.00
26192;BME280;13935;55.672;37.764;2023-04-02T06:43:53;99613.34;;;9.24;100.00
26192;BME280;13935;55.672;37.764;2023-04-02T06:45:32;99612.63;;;9.31;100.00
26192;BME280;13935;55.672;37.764;2023-04-02T06:46:55;99615.09;;;9.46;100.00
26192;BME280;13935;55.672;37.764;2023-04-02T06:48:14;99613.00;;;9.26;100.00
26192;BME280;13935;55.672;37.764;2023-04-02T06:51:47;99610.34;;;9.47;100.00
26192;BME280;13935;55.672;37.764;2023-04-02T06:52:59;99606.50;;;9.62;100.00
26192;BME280;13935;55.672;37.764;2023-04-02T06:54:03;99620.69;;;9.60;100.00
26192;BME280;13935;55.672;37.764;2023-04-02T06:56:45;99612.03;;;9.62;100.00
26192;BME280;13935;55.672;37.764;2023-04-02T06:58:00;99627.06;;;9.71;100.00
26192;BME280;13935;55.672;37.764;2023-04-02T06:59:08;99624.25;;;9.64;100.00
26192;BME280;13935;55.672;37.764;2023-04-02T07:03:23;99623.81;;;9.55;100.00
26192;BME280;13935;55.672;37.764;2023-04-02T07:04:29;99609.53;;;9.43;100.00
26192;BME280;13935;55.672;37.764;2023-04-02T07:05:35;99616.69;;;9.51;100.00
26192;BME280;13935;55.672;37.764;2023-04-02T07:06:38;99618.28;;;9.48;100.00
26192;BME280;13935;55.672;37.764;2023-04-02T07:07:42;99619.84;;;9.53;100.00
26192;BME280;13935;55.672;37.764;2023-04-02T07:08:51;99618.31;;;9.62;100.00
26192;BME280;13935;55.672;37.764;2023-04-02T07:09:56;99624.66;;;9.63;100.00
26192;BME280;13935;55.672;37.764;2023-04-02T07:11:03;99617.19;;;9.70;100.00
26192;BME280;13935;55.672;37.764;2023-04-02T07:12:12;99614.78;;;9.62;100.00
26192;BME280;13935;55.672;37.764;2023-04-02T07:13:23;99618.75;;;9.68;100.00
26192;BME280;13935;55.672;37.764;2023-04-02T07:14:28;99619.53;;;9.68;100.00
26192;BME280;13935;55.672;37.764;2023-04-02T07:15:36;99614.38;;;9.60;100.00
26192;BME280;13935;55.672;37.764;2023-04-02T07:16:44;99609.25;;;9.62;100.00
26192;BME280;13935;55.672;37.764;2023-04-02T07:18:04;99616.00;;;9.68;100.00
26192;BME280;13935;55.672;37.764;2023-04-02T07:19:21;99619.53;;;9.65;100.00
26192;BME280;13935;55.672;37.764;2023-04-02T07:20:34;99619.88;;;9.60;100.00
26192;BME280;13935;55.672;37.764;2023-04-02T07:24:08;99622.66;;;9.60;100.00
26192;BME280;13935;55.672;37.764;2023-04-02T07:25:12;99629.34;;;9.59;100.00
26192;BME280;13935;55.672;37.764;2023-04-02T07:26:24;99631.78;;;9.64;100.00
26192;BME280;13935;55.672;37.764;2023-04-02T07:27:34;99632.13;;;9.62;100.00
26192;BME280;13935;55.672;37.764;2023-04-02T07:28:45;99631.41;;;9.72;100.00
26192;BME280;13935;55.672;37.764;2023-04-02T07:29:53;99631.72;;;9.57;100.00
26192;BME280;13935;55.672;37.764;2023-04-02T07:31:00;99634.91;;;9.66;100.00
26192;BME280;13935;55.672;37.764;2023-04-02T07:32:12;99632.97;;;9.70;100.00
26192;BME280;13935;55.672;37.764;2023-04-02T07:33:28;99638.84;;;9.65;100.00
26192;BME280;13935;55.672;37.764;2023-04-02T07:34:42;99643.28;;;9.80;100.00
26192;BME280;13935;55.672;37.764;2023-04-02T07:36:16;99635.63;;;9.49;100.00
26192;BME280;13935;55.672;37.764;2023-04-02T07:37:23;99642.78;;;9.57;100.00
26192;BME280;13935;55.672;37.764;2023-04-02T07:38:35;99642.72;;;9.50;100.00
26192;BME280;13935;55.672;37.764;2023-04-02T07:39:39;99639.19;;;9.53;100.00
26192;BME280;13935;55.672;37.764;2023-04-02T07:40:43;99645.09;;;9.51;100.00
26192;BME280;13935;55.672;37.764;2023-04-02T07:41:52;99635.59;;;9.45;100.00
26192;BME280;13935;55.672;37.764;2023-04-02T07:43:01;99633.31;;;9.61;100.00
26192;BME280;13935;55.672;37.764;2023-04-02T07:44:17;99631.75;;;9.60;100.00
26192;BME280;13935;55.672;37.764;2023-04-02T07:45:46;99628.59;;;9.62;100.00
26192;BME280;13935;55.672;37.764;2023-04-02T07:46:54;99633.38;;;9.75;100.00
26192;BME280;13935;55.672;37.764;2023-04-02T07:48:05;99640.91;;;9.75;100.00
26192;BME280;13935;55.672;37.764;2023-04-02T07:49:14;99631.41;;;9.72;100.00
26192;BME280;13935;55.672;37.764;2023-04-02T07:50:22;99633.38;;;9.75;100.00
26192;BME280;13935;55.672;37.764;2023-04-02T07:51:42;99634.91;;;9.66;100.00
26192;BME280;13935;55.672;37.764;2023-04-02T07:53:38;99642.81;;;9.64;100.00
26192;BME280;13935;55.672;37.764;2023-04-02T07:55:12;99649.97;;;9.79;100.00
26192;BME280;13935;55.672;37.764;2023-04-02T07:56:33;99647.66;;;9.84;100.00
26192;BME280;13935;55.672;37.764;2023-04-02T07:57:57;99639.63;;;9.62;100.00
26192;BME280;13935;55.672;37.764;2023-04-02T07:59:05;99639.28;;;9.70;100.00
26192;BME280;13935;55.672;37.764;2023-04-02T08:00:18;99642.09;;;9.77;100.00
26192;BME280;13935;55.672;37.764;2023-04-02T08:01:28;99646.06;;;9.83;100.00
26192;BME280;13935;55.672;37.764;2023-04-02T08:12:31;99653.06;;;9.63;100.00
26192;BME280;13935;55.672;37.764;2023-04-02T08:15:46;99643.44;;;9.40;100.00
26192;BME280;13935;55.672;37.764;2023-04-02T08:22:03;99645.91;;;9.55;100.00
26192;BME280;13935;55.672;37.764;2023-04-02T08:28:06;99653.78;;;9.53;100.00
26192;BME280;13935;55.672;37.764;2023-04-02T08:31:30;99658.56;;;9.63;100.00
26192;BME280;13935;55.672;37.764;2023-04-02T08:32:39;99660.19;;;9.68;100.00
26192;BME280;13935;55.672;37.764;2023-04-02T08:34:12;99659.81;;;9.73;100.00
26192;BME280;13935;55.672;37.764;2023-04-02T08:36:34;99665.72;;;9.68;100.00
26192;BME280;13935;55.672;37.764;2023-04-02T08:39:07;99662.94;;;9.64;100.00
26192;BME280;13935;55.672;37.764;2023-04-02T08:40:37;99666.50;;;9.72;100.00
26192;BME280;13935;55.672;37.764;2023-04-02T08:47:07;99660.16;;;9.64;100.00
26192;BME280;13935;55.672;37.764;2023-04-02T08:50:37;99666.56;;;9.79;100.00
26192;BME280;13935;55.672;37.764;2023-04-02T08:53:14;99652.34;;;9.77;100.00
26192;BME280;13935;55.672;37.764;2023-04-02T08:58:53;99652.34;;;9.77;100.00
26192;BME280;13935;55.672;37.764;2023-04-02T09:04:00;99653.44;;;9.62;100.00
26192;BME280;13935;55.672;37.764;2023-04-02T09:06:50;99661.41;;;9.74;100.00
26192;BME280;13935;55.672;37.764;2023-04-02T09:10:19;99652.75;;;9.79;100.00
26192;BME280;13935;55.672;37.764;2023-04-02T09:12:20;99659.81;;;9.73;100.00
26192;BME280;13935;55.672;37.764;2023-04-02T09:14:02;99655.47;;;9.72;100.00
26192;BME280;13935;55.672;37.764;2023-04-02T09:19:20;99664.94;;;9.71;100.00
26192;BME280;13935;55.672;37.764;2023-04-02T09:20:42;99662.22;;;9.78;100.00
26192;BME280;13935;55.672;37.764;2023-04-02T09:25:42;99658.66;;;9.74;100.00
26192;BME280;13935;55.672;37.764;2023-04-02T09:28:08;99657.09;;;9.80;100.00
26192;BME280;13935;55.672;37.764;2023-04-02T09:40:21;99670.34;;;10.17;100.00
26192;BME280;13935;55.672;37.764;2023-04-02T09:46:26;99671.81;;;9.97;100.00
26192;BME280;13935;55.672;37.764;2023-04-02T09:49:22;99660.41;;;10.06;100.00
26192;BME280;13935;55.672;37.764;2023-04-02T09:51:20;99672.28;;;10.06;100.00
26192;BME280;13935;55.672;37.764;2023-04-02T09:53:35;99674.22;;;10.06;100.00
26192;BME280;13935;55.672;37.764;2023-04-02T09:55:32;99665.97;;;10.13;100.00
26192;BME280;13935;55.672;37.764;2023-04-02T09:57:28;99669.38;;;9.86;100.00
26192;BME280;13935;55.672;37.764;2023-04-02T09:59:31;99672.97;;;9.96;100.00
26192;BME280;13935;55.672;37.764;2023-04-02T10:06:14;99664.41;;;10.19;100.00
26192;BME280;13935;55.672;37.764;2023-04-02T10:13:30;99668.47;;;10.49;100.00
26192;BME280;13935;55.672;37.764;2023-04-02T10:15:43;99667.72;;;10.63;100.00
26192;BME280;13935;55.672;37.764;2023-04-02T10:17:14;99672.84;;;10.57;100.00
26192;BME280;13935;55.672;37.764;2023-04-02T10:21:24;99671.19;;;10.35;100.00
26192;BME280;13935;55.672;37.764;2023-04-02T10:22:46;99662.13;;;10.49;100.00
26192;BME280;13935;55.672;37.764;2023-04-02T10:23:54;99670.84;;;10.47;100.00
26192;BME280;13935;55.672;37.764;2023-04-02T10:25:56;99679.50;;;10.42;100.00
26192;BME280;13935;55.672;37.764;2023-04-02T10:36:46;99662.22;;;11.01;100.00
26192;BME280;13935;55.672;37.764;2023-04-02T10:38:48;99670.91;;;10.96;100.00
26192;BME280;13935;55.672;37.764;2023-04-02T10:39:57;99663.41;;;11.17;100.00
26192;BME280;13935;55.672;37.764;2023-04-02T10:41:56;99662.66;;;11.24;100.00
26192;BME280;13935;55.672;37.764;2023-04-02T10:49:08;99658.25;;;11.64;100.00
26192;BME280;13935;55.672;37.764;2023-04-02T10:50:37;99657.06;;;11.79;100.00
26192;BME280;13935;55.672;37.764;2023-04-02T10:53:21;99662.97;;;11.81;100.00
26192;BME280;13935;55.672;37.764;2023-04-02T10:55:00;99655.13;;;11.62;100.00
26192;BME280;13935;55.672;37.764;2023-04-02T10:56:16;99655.50;;;11.54;100.00
26192;BME280;13935;55.672;37.764;2023-04-02T10:57:48;99664.63;;;11.54;100.00
26192;BME280;13935;55.672;37.764;2023-04-02T10:59:40;99647.59;;;11.63;100.00
26192;BME280;13935;55.672;37.764;2023-04-02T11:01:06;99666.53;;;11.92;100.00
26192;BME280;13935;55.672;37.764;2023-04-02T11:03:16;99655.06;;;11.83;100.00
26192;BME280;13935;55.672;37.764;2023-04-02T11:05:13;99651.94;;;11.64;100.00
26192;BME280;13935;55.672;37.764;2023-04-02T11:08:44;99651.88;;;11.81;100.00
26192;BME280;13935;55.672;37.764;2023-04-02T11:10:24;99644.31;;;11.99;100.00
26192;BME280;13935;55.672;37.764;2023-04-02T11:11:45;99655.03;;;11.94;100.00
26192;BME280;13935;55.672;37.764;2023-04-02T11:14:45;99648.34;;;11.77;100.00
26192;BME280;13935;55.672;37.764;2023-04-02T11:16:11;99644.03;;;11.55;100.00
26192;BME280;13935;55.672;37.764;2023-04-02T11:17:23;99652.72;;;11.68;100.00
26192;BME280;13935;55.672;37.764;2023-04-02T11:21:03;99642.38;;;11.82;100.00
26192;BME280;13935;55.672;37.764;2023-04-02T11:22:19;99645.56;;;11.84;100.00
26192;BME280;13935;55.672;37.764;2023-04-02T11:23:58;99644.81;;;11.66;100.00
26192;BME280;13935;55.672;37.764;2023-04-02T11:25:32;99640.06;;;11.56;100.00
26192;BME280;13935;55.672;37.764;2023-04-02T11:26:47;99648.38;;;11.56;100.00
26192;BME280;13935;55.672;37.764;2023-04-02T11:28:17;99639.31;;;11.32;100.00
26192;BME280;13935;55.672;37.764;2023-04-02T11:30:56;99640.50;;;11.31;100.00
26192;BME280;13935;55.672;37.764;2023-04-02T11:32:36;99648.78;;;11.34;100.00
26192;BME280;13935;55.672;37.764;2023-04-02T11:33:48;99634.50;;;11.60;100.00
26192;BME280;13935;55.672;37.764;2023-04-02T11:36:57;99637.66;;;11.76;100.00
26192;BME280;13935;55.672;37.764;2023-04-02T11:43:48;99645.56;;;11.70;100.00
26192;BME280;13935;55.672;37.764;2023-04-02T11:47:16;99646.34;;;11.81;100.00
26192;BME280;13935;55.672;37.764;2023-04-02T11:48:29;99643.53;;;11.95;100.00
26192;BME280;13935;55.672;37.764;2023-04-02T11:49:58;99653.47;;;11.86;100.00
26192;BME280;13935;55.672;37.764;2023-04-02T11:52:50;99645.56;;;11.81;100.00
26192;BME280;13935;55.672;37.764;2023-04-02T11:54:24;99642.41;;;11.75;100.00
26192;BME280;13935;55.672;37.764;2023-04-02T11:55:35;99642.78;;;11.77;100.00
26192;BME280;13935;55.672;37.764;2023-04-02T11:57:04;99640.03;;;11.70;100.00
26192;BME280;13935;55.672;37.764;2023-04-02T11:59:20;99636.47;;;11.73;100.00
26192;BME280;13935;55.672;37.764;2023-04-02T12:00:53;99641.59;;;11.85;100.00
26192;BME280;13935;55.672;37.764;2023-04-02T12:06:17;99640.78;;;11.81;100.00
26192;BME280;13935;55.672;37.764;2023-04-02T12:07:36;99642.03;;;11.70;100.00
26192;BME280;13935;55.672;37.764;2023-04-02T12:10:31;99642.78;;;11.88;100.00
26192;BME280;13935;55.672;37.764;2023-04-02T12:11:51;99640.38;;;11.93;100.00
26192;BME280;13935;55.672;37.764;2023-04-02T12:14:28;99644.75;;;11.87;100.00
26192;BME280;13935;55.672;37.764;2023-04-02T12:15:52;99643.16;;;11.97;100.00
26192;BME280;13935;55.672;37.764;2023-04-02T12:17:20;99645.16;;;11.82;100.00
26192;BME280;13935;55.672;37.764;2023-04-02T12:21:29;99651.06;;;11.98;100.00
26192;BME280;13935;55.672;37.764;2023-04-02T12:23:12;99643.19;;;11.86;100.00
26192;BME280;13935;55.672;37.764;2023-04-02T12:24:36;99649.50;;;11.90;100.00
26192;BME280;13935;55.672;37.764;2023-04-02T12:26:03;99643.56;;;11.81;100.00
26192;BME280;13935;55.672;37.764;2023-04-02T12:27:38;99644.31;;;12.03;100.00
26192;BME280;13935;55.672;37.764;2023-04-02T12:28:52;99657.41;;;11.81;100.00
26192;BME280;13935;55.672;37.764;2023-04-02T12:30:28;99643.97;;;11.76;100.00
26192;BME280;13935;55.672;37.764;2023-04-02T12:32:24;99649.91;;;11.85;100.00
26192;BME280;13935;55.672;37.764;2023-04-02T12:33:55;99647.13;;;11.92;100.00
26192;BME280;13935;55.672;37.764;2023-04-02T12:37:27;99646.31;;;11.88;100.00
26192;BME280;13935;55.672;37.764;2023-04-02T12:39:18;99639.97;;;11.95;100.00
26192;BME280;13935;55.672;37.764;2023-04-02T12:40:24;99645.50;;;12.05;100.00
26192;BME280;13935;55.672;37.764;2023-04-02T12:41:35;99637.53;;;12.07;100.00
26192;BME280;13935;55.672;37.764;2023-04-02T12:42:45;99648.66;;;12.00;100.00
26192;BME280;13935;55.672;37.764;2023-04-02T12:44:13;99652.66;;;11.99;100.00
26192;BME280;13935;55.672;37.764;2023-04-02T12:45:50;99636.72;;;12.13;100.00
26192;BME280;13935;55.672;37.764;2023-04-02T12:47:13;99642.31;;;12.07;100.00
26192;BME280;13935;55.672;37.764;2023-04-02T12:48:27;99647.84;;;12.07;100.00
26192;BME280;13935;55.672;37.764;2023-04-02T12:49:42;99646.63;;;12.14;100.00
26192;BME280;13935;55.672;37.764;2023-04-02T12:50:48;99639.94;;;12.09;100.00
26192;BME280;13935;55.672;37.764;2023-04-02T12:51:55;99634.72;;;12.21;100.00
26192;BME280;13935;55.672;37.764;2023-04-02T12:53:27;99644.63;;;12.18;100.00
26192;BME280;13935;55.672;37.764;2023-04-02T12:54:52;99647.81;;;12.17;100.00
26192;BME280;13935;55.672;37.764;2023-04-02T12:56:17;99652.56;;;12.16;100.00
26192;BME280;13935;55.672;37.764;2023-04-02T12:57:57;99643.16;;;11.97;100.00
26192;BME280;13935;55.672;37.764;2023-04-02T12:59:35;99639.88;;;12.19;100.00
26192;BME280;13935;55.672;37.764;2023-04-02T13:01:16;99633.13;;;12.23;100.00
26192;BME280;13935;55.672;37.764;2023-04-02T13:02:43;99637.47;;;12.28;100.00
26192;BME280;13935;55.672;37.764;2023-04-02T13:05:53;99633.81;;;12.38;100.00
26192;BME280;13935;55.672;37.764;2023-04-02T13:07:31;99635.88;;;12.27;100.00
26192;BME280;13935;55.672;37.764;2023-04-02T13:08:52;99634.97;;;12.44;100.00
26192;BME280;13935;55.672;37.764;2023-04-02T13:10:28;99639.75;;;12.43;100.00
26192;BME280;13935;55.672;37.764;2023-04-02T13:11:44;99634.13;;;12.57;100.00
26192;BME280;13935;55.672;37.764;2023-04-02T13:13:02;99640.47;;;12.58;100.00
26192;BME280;13935;55.672;37.764;2023-04-02T13:14:20;99646.00;;;12.58;100.00
26192;BME280;13935;55.672;37.764;2023-04-02T13:15:35;99641.19;;;12.65;100.00
26192;BME280;13935;55.672;37.764;2023-04-02T13:16:47;99639.63;;;12.64;100.00
26192;BME280;13935;55.672;37.764;2023-04-02T13:18:04;99640.47;;;12.58;100.00
26192;BME280;13935;55.672;37.764;2023-04-02T13:22:29;99645.94;;;12.72;100.00
26192;BME280;13935;55.672;37.764;2023-04-02T13:23:35;99647.56;;;12.66;100.00
26192;BME280;13935;55.672;37.764;2023-04-02T13:24:54;99644.41;;;12.60;100.00
26192;BME280;13935;55.672;37.764;2023-04-02T13:26:20;99641.19;;;12.69;100.00
26192;BME280;13935;55.672;37.764;2023-04-02T13:27:32;99641.63;;;12.60;100.00
26192;BME280;13935;55.672;37.764;2023-04-02T13:29:03;99638.00;;;12.70;100.00
26192;BME280;13935;55.672;37.764;2023-04-02T13:30:22;99641.97;;;12.73;100.00
26192;BME280;13935;55.672;37.764;2023-04-02T13:31:34;99642.66;;;12.83;100.00
26192;BME280;13935;55.672;37.764;2023-04-02T13:32:44;99641.19;;;12.69;100.00
26192;BME280;13935;55.672;37.764;2023-04-02T13:34:15;99639.69;;;12.57;100.00
26192;BME280;13935;55.672;37.764;2023-04-02T13:36:16;99646.75;;;12.65;100.00
26192;BME280;13935;55.672;37.764;2023-04-02T13:37:27;99644.44;;;12.53;100.00
26192;BME280;13935;55.672;37.764;2023-04-02T13:38:40;99642.81;;;12.59;100.00
26192;BME280;13935;55.672;37.764;2023-04-02T13:40:23;99642.03;;;12.62;100.00
26192;BME280;13935;55.672;37.764;2023-04-02T13:43:19;99642.09;;;12.52;100.00
26192;BME280;13935;55.672;37.764;2023-04-02T13:45:19;99644.53;;;12.43;100.00
26192;BME280;13935;55.672;37.764;2023-04-02T13:46:58;99647.69;;;12.38;100.00
26192;BME280;13935;55.672;37.764;2023-04-02T13:48:27;99637.38;;;12.42;100.00
26192;BME280;13935;55.672;37.764;2023-04-02T13:49:39;99643.31;;;12.44;100.00
26192;BME280;13935;55.672;37.764;2023-04-02T13:50:44;99641.28;;;12.55;100.00
26192;BME280;13935;55.672;37.764;2023-04-02T13:52:26;99643.69;;;12.46;100.00
26192;BME280;13935;55.672;37.764;2023-04-02T13:53:47;99645.28;;;12.50;100.00
26192;BME280;13935;55.672;37.764;2023-04-02T13:54:57;99649.69;;;12.41;100.00
26192;BME280;13935;55.672;37.764;2023-04-02T13:56:20;99652.09;;;12.32;100.00
26192;BME280;13935;55.672;37.764;2023-04-02T13:57:32;99646.16;;;12.37;100.00
26192;BME280;13935;55.672;37.764;2023-04-02T13:58:48;99647.72;;;12.31;100.00
26192;BME280;13935;55.672;37.764;2023-04-02T13:59:59;99647.69;;;12.38;100.00
26192;BME280;13935;55.672;37.764;2023-04-02T14:01:14;99646.94;;;12.34;100.00
26192;BME280;13935;55.672;37.764;2023-04-02T14:02:50;99638.22;;;12.28;100.00
26192;BME280;13935;55.672;37.764;2023-04-02T14:04:39;99643.03;;;12.21;100.00
26192;BME280;13935;55.672;37.764;2023-04-02T14:14:27;99646.19;;;12.30;100.00
26192;BME280;13935;55.672;37.764;2023-04-02T14:20:34;99644.28;;;12.06;100.00
26192;BME280;13935;55.672;37.764;2023-04-02T14:31:55;99639.84;;;12.26;100.00
26192;BME280;13935;55.672;37.764;2023-04-02T14:37:07;99647.78;;;12.24;100.00
26192;BME280;13935;55.672;37.764;2023-04-02T14:38:49;99647.41;;;12.22;100.00
26192;BME280;13935;55.672;37.764;2023-04-02T14:42:32;99647.41;;;12.22;100.00
26192;BME280;13935;55.672;37.764;2023-04-02T14:44:17;99642.28;;;12.17;100.00
26192;BME280;13935;55.672;37.764;2023-04-02T14:46:01;99644.63;;;12.22;100.00
26192;BME280;13935;55.672;37.764;2023-04-02T14:47:34;99638.25;;;12.25;100.00
26192;BME280;13935;55.672;37.764;2023-04-02T14:49:43;99649.75;;;12.27;100.00
26192;BME280;13935;55.672;37.764;2023-04-02T14:51:04;99647.03;;;12.09;100.00
26192;BME280;13935;55.672;37.764;2023-04-02T14:52:25;99649.44;;;12.11;100.00
26192;BME280;13935;55.672;37.764;2023-04-02T14:53:50;99645.47;;;12.12;100.00
26192;BME280;13935;55.672;37.764;2023-04-02T14:55:12;99645.41;;;12.19;100.00
26192;BME280;13935;55.672;37.764;2023-04-02T14:56:35;99643.06;;;12.14;100.00
26192;BME280;13935;55.672;37.764;2023-04-02T14:57:48;99644.66;;;12.15;100.00
26192;BME280;13935;55.672;37.764;2023-04-02T15:04:12;99649.47;;;12.01;100.00
26192;BME280;13935;55.672;37.764;2023-04-02T15:06:19;99651.47;;;11.97;100.00
26192;BME280;13935;55.672;37.764;2023-04-02T15:09:37;99650.22;;;12.05;100.00
26192;BME280;13935;55.672;37.764;2023-04-02T15:12:47;99648.66;;;12.00;100.00
26192;BME280;13935;55.672;37.764;2023-04-02T15:15:52;99645.06;;;12.10;100.00
26192;BME280;13935;55.672;37.764;2023-04-02T15:17:05;99643.91;;;12.04;100.00
26192;BME280;13935;55.672;37.764;2023-04-02T15:18:14;99652.59;;;12.06;100.00
26192;BME280;13935;55.672;37.764;2023-04-02T15:19:34;99639.16;;;12.01;100.00
26192;BME280;13935;55.672;37.764;2023-04-02T15:22:51;99652.59;;;12.06;100.00
26192;BME280;13935;55.672;37.764;2023-04-02T15:31:50;99650.25;;;11.94;100.00
26192;BME280;13935;55.672;37.764;2023-04-02T15:35:49;99646.72;;;11.94;100.00
26192;BME280;13935;55.672;37.764;2023-04-02T15:38:44;99647.13;;;11.92;100.00
26192;BME280;13935;55.672;37.764;2023-04-02T15:42:18;99647.13;;;11.92;100.00
26192;BME280;13935;55.672;37.764;2023-04-02T15:44:13;99651.84;;;11.92;100.00
26192;BME280;13935;55.672;37.764;2023-04-02T15:50:11;99655.84;;;11.87;100.00
26192;BME280;13935;55.672;37.764;2023-04-02T15:53:08;99649.50;;;11.87;100.00
26192;BME280;13935;55.672;37.764;2023-04-02T15:55:13;99660.59;;;11.83;100.00
26192;BME280;13935;55.672;37.764;2023-04-02T16:00:13;99655.06;;;11.76;100.00
26192;BME280;13935;55.672;37.764;2023-04-02T16:11:09;99661.44;;;11.70;100.00
26192;BME280;13935;55.672;37.764;2023-04-02T16:12:22;99669.34;;;11.71;100.00
26192;BME280;13935;55.672;37.764;2023-04-02T16:13:35;99671.69;;;11.69;100.00
26192;BME280;13935;55.672;37.764;2023-04-02T16:17:29;99673.31;;;11.63;100.00
26192;BME280;13935;55.672;37.764;2023-04-02T16:20:52;99681.25;;;11.61;100.00
26192;BME280;13935;55.672;37.764;2023-04-02T16:22:46;99676.13;;;11.53;100.00
26192;BME280;13935;55.672;37.764;2023-04-02T16:24:32;99682.03;;;11.62;100.00
26192;BME280;13935;55.672;37.764;2023-04-02T16:26:27;99684.38;;;11.60;100.00
26192;BME280;13935;55.672;37.764;2023-04-02T16:27:45;99685.19;;;11.60;100.00
26192;BME280;13935;55.672;37.764;2023-04-02T16:29:31;99690.75;;;11.60;100.00
26192;BME280;13935;55.672;37.764;2023-04-02T16:31:57;99692.31;;;11.61;100.00
26192;BME280;13935;55.672;37.764;2023-04-02T16:37:03;99694.28;;;11.57;100.00
26192;BME280;13935;55.672;37.764;2023-04-02T16:41:49;99700.25;;;11.52;100.00
26192;BME280;13935;55.672;37.764;2023-04-02T16:43:59;99704.16;;;11.48;100.00
26192;BME280;13935;55.672;37.764;2023-04-02T16:47:56;99709.72;;;11.38;100.00
26192;BME280;13935;55.672;37.764;2023-04-02T16:53:59;99704.97;;;11.41;100.00
26192;BME280;13935;55.672;37.764;2023-04-02T16:56:57;99704.16;;;11.44;100.00
26192;BME280;13935;55.672;37.764;2023-04-02T17:00:48;99708.13;;;11.37;100.00
26192;BME280;13935;55.672;37.764;2023-04-02T17:04:04;99720.00;;;11.27;100.00
26192;BME280;13935;55.672;37.764;2023-04-02T17:08:29;99723.56;;;11.24;100.00
26192;BME280;13935;55.672;37.764;2023-04-02T17:09:52;99714.84;;;11.29;100.00
26192;BME280;13935;55.672;37.764;2023-04-02T17:13:02;99725.53;;;11.27;100.00
26192;BME280;13935;55.672;37.764;2023-04-02T17:14:33;99724.75;;;11.26;100.00
26192;BME280;13935;55.672;37.764;2023-04-02T17:15:52;99718.44;;;11.22;100.00
26192;BME280;13935;55.672;37.764;2023-04-02T17:17:03;99716.03;;;11.28;100.00
26192;BME280;13935;55.672;37.764;2023-04-02T17:18:17;99716.84;;;11.28;100.00
26192;BME280;13935;55.672;37.764;2023-04-02T17:19:25;99712.50;;;11.31;100.00
26192;BME280;13935;55.672;37.764;2023-04-02T17:20:29;99717.63;;;11.29;100.00
26192;BME280;13935;55.672;37.764;2023-04-02T17:21:40;99717.63;;;11.32;100.00
26192;BME280;13935;55.672;37.764;2023-04-02T17:22:49;99724.75;;;11.23;100.00
26192;BME280;13935;55.672;37.764;2023-04-02T17:25:49;99726.72;;;11.19;100.00
26192;BME280;13935;55.672;37.764;2023-04-02T17:26:59;99727.09;;;11.21;100.00
26192;BME280;13935;55.672;37.764;2023-04-02T17:28:09;99723.16;;;11.25;100.00
26192;BME280;13935;55.672;37.764;2023-04-02T17:29:43;99730.69;;;11.21;100.00
26192;BME280;13935;55.672;37.764;2023-04-02T17:30:52;99732.66;;;11.28;100.00
26192;BME280;13935;55.672;37.764;2023-04-02T17:31:59;99726.31;;;11.20;100.00
26192;BME280;13935;55.672;37.764;2023-04-02T17:33:15;99727.50;;;11.16;100.00
26192;BME280;13935;55.672;37.764;2023-04-02T17:34:21;99728.69;;;11.22;100.00
26192;BME280;13935;55.672;37.764;2023-04-02T17:37:05;99732.28;;;11.19;100.00
26192;BME280;13935;55.672;37.764;2023-04-02T17:40:44;99725.50;;;11.20;100.00
26192;BME280;13935;55.672;37.764;2023-04-02T17:42:17;99726.34;;;11.24;100.00
26192;BME280;13935;55.672;37.764;2023-04-02T17:43:44;99734.22;;;11.22;100.00
26192;BME280;13935;55.672;37.764;2023-04-02T17:46:03;99731.06;;;11.20;100.00
26192;BME280;13935;55.672;37.764;2023-04-02T17:50:57;99733.03;;;11.12;100.00
26192;BME280;13935;55.672;37.764;2023-04-02T17:54:06;99735.81;;;11.12;100.00
26192;BME280;13935;55.672;37.764;2023-04-02T17:55:42;99736.59;;;11.13;100.00
26192;BME280;13935;55.672;37.764;2023-04-02T18:04:40;99745.69;;;11.06;100.00
26192;BME280;13935;55.672;37.764;2023-04-02T18:05:53;99745.28;;;11.11;100.00
26192;BME280;13935;55.672;37.764;2023-04-02T18:12:59;99753.22;;;11.23;100.00
26192;BME280;13935;55.672;37.764;2023-04-02T18:14:29;99742.53;;;11.15;100.00
26192;BME280;13935;55.672;37.764;2023-04-02T18:18:44;99744.50;;;11.11;100.00
26192;BME280;13935;55.672;37.764;2023-04-02T18:25:53;99746.88;;;11.09;100.00
26192;BME280;13935;55.672;37.764;2023-04-02T18:28:35;99755.56;;;11.04;100.00
26192;BME280;13935;55.672;37.764;2023-04-02T18:30:29;99751.22;;;11.03;100.00
26192;BME280;13935;55.672;37.764;2023-04-02T18:33:32;99754.38;;;11.05;100.00
26192;BME280;13935;55.672;37.764;2023-04-02T18:41:36;99750.03;;;11.04;100.00
26192;BME280;13935;55.672;37.764;2023-04-02T18:43:01;99749.63;;;11.02;100.00
26192;BME280;13935;55.672;37.764;2023-04-02T18:46:08;99751.63;;;11.05;100.00
26192;BME280;13935;55.672;37.764;2023-04-02T18:47:33;99754.78;;;11.03;100.00
26192;BME280;13935;55.672;37.764;2023-04-02T18:51:34;99757.91;;;10.95;100.00